.
WxDataArchive / Data Records for 2009-06-20
2009-06-19 June 2009 2009-06-21

Data Records for Saturday, 20 June 2009

Time	Temp	Chill	HIndex	Humid	Dewpt	 Wind 	HiWind	WindDir	Rain 	Barom 
-----	----	-----	------	-----	-----	------	------	-------	-----	----- 
00:00	76.0	76.0	76.7	84	70.8	1	3	270	0.00	29.676 
00:05	75.8	75.8	76.3	84	70.6	1	3	270	0.00	29.676 
00:10	75.6	75.6	76.0	84	70.4	1	3	292	0.00	29.676 
00:15	75.4	75.4	75.8	83	69.9	1	3	248	0.00	29.655 
00:20	75.3	75.3	75.9	81	69.1	1	3	248	0.00	29.655 
00:25	74.9	74.9	74.9	77	67.2	3	7	270	0.00	29.655 
00:30	74.6	74.6	74.6	75	66.1	2	6	270	0.00	29.654 
00:35	74.2	74.2	74.2	77	66.5	1	4	248	0.00	29.654 
00:40	74.0	74.0	74.0	77	66.3	1	4	270	0.00	29.654 
00:45	73.7	73.7	73.7	77	66.0	1	5	270	0.00	29.649 
00:50	73.5	73.5	73.5	77	65.8	1	4	248	0.00	29.649 
00:55	73.2	73.2	73.2	77	65.5	1	5	225	0.00	29.649 
01:00	73.0	73.0	73.0	76	65.0	1	3	292	0.00	29.648 
01:05	73.0	73.0	73.0	77	65.3	1	3	292	0.00	29.648 
01:10	72.8	72.8	72.8	77	65.2	0	3	292	0.00	29.648 
01:15	72.7	72.7	72.7	78	65.4	0	2	225	0.00	29.641 
01:20	72.3	72.3	72.3	78	65.0	1	5	225	0.00	29.641 
01:25	72.3	72.3	72.3	79	65.4	0	2	248	0.00	29.641 
01:30	72.0	72.0	72.0	79	65.1	0	2	315	0.00	29.628 
01:35	72.0	72.0	72.0	79	65.1	1	3	315	0.00	29.628 
01:40	71.8	71.8	71.8	80	65.3	0	2	315	0.00	29.628 
01:45	71.8	71.8	71.8	80	65.3	0	2	315	0.00	29.619 
01:50	71.6	71.6	71.6	81	65.4	0	2	315	0.00	29.619 
01:55	71.6	71.6	71.6	81	65.4	0	2	315	0.00	29.619 
02:00	71.6	71.6	71.6	81	65.4	0	3	315	0.00	29.625 
02:05	71.5	71.5	71.5	81	65.4	0	1	315	0.00	29.625 
02:10	71.5	71.5	71.5	82	65.7	0	2	315	0.00	29.625 
02:15	71.5	71.5	71.5	82	65.7	0	2	270	0.00	29.618 
02:20	71.3	71.3	71.3	83	65.9	0	2	270	0.00	29.618 
02:25	71.3	71.3	71.3	84	66.2	1	4	270	0.00	29.618 
02:30	71.3	71.3	71.3	84	66.2	1	3	270	0.00	29.617 
02:35	71.3	71.3	71.3	85	66.5	0	3	225	0.00	29.617 
02:40	71.1	71.1	71.1	86	66.7	0	2	225	0.00	29.617 
02:45	71.1	71.1	71.1	86	66.7	0	3	225	0.00	29.617 
02:50	71.1	71.1	71.1	87	67.0	1	4	270	0.00	29.617 
02:55	71.1	71.1	71.1	87	67.0	1	4	292	0.00	29.617 
03:00	71.3	71.3	71.3	87	67.2	1	4	292	0.00	29.616 
03:05	71.3	71.3	71.3	88	67.6	1	4	338	0.00	29.616 
03:10	71.1	71.1	71.1	88	67.4	1	3	225	0.00	29.616 
03:15	71.1	71.1	71.1	88	67.4	1	4	248	0.00	29.614 
03:20	71.1	71.1	71.1	88	67.4	1	3	270	0.00	29.614 
03:25	71.3	71.3	71.3	88	67.6	1	3	248	0.00	29.614 
03:30	71.3	71.3	71.3	88	67.6	2	5	270	0.00	29.616 
03:35	71.3	71.3	71.3	88	67.6	1	4	292	0.00	29.616 
03:40	71.3	71.3	71.3	88	67.6	1	3	292	0.00	29.616 
03:45	71.5	71.5	71.5	88	67.7	2	4	248	0.00	29.614 
03:50	71.5	71.5	71.5	88	67.7	1	3	270	0.00	29.614 
03:55	71.5	71.5	71.5	88	67.7	1	3	270	0.00	29.614 
04:00	71.5	71.5	71.5	89	68.1	1	3	270	0.00	29.616 
04:05	71.3	71.3	71.3	89	67.9	1	5	270	0.00	29.616 
04:10	71.1	71.1	71.1	90	68.0	1	3	270	0.00	29.616 
04:15	71.1	71.1	71.1	90	68.0	2	5	270	0.01	29.619 
04:20	71.1	71.1	71.1	90	68.0	1	4	270	0.00	29.619 
04:25	71.1	71.1	71.1	90	68.0	2	5	270	0.00	29.619 
04:30	71.1	71.1	71.1	91	68.3	2	5	248	0.00	29.618 
04:35	71.1	71.1	71.1	91	68.3	2	4	270	0.00	29.618 
04:40	71.1	71.1	71.1	91	68.3	1	3	315	0.00	29.618 
04:45	71.1	71.1	71.1	91	68.3	1	4	315	0.00	29.623 
04:50	70.9	70.9	70.9	91	68.1	1	2	270	0.00	29.623 
04:55	70.9	70.9	70.9	91	68.1	1	4	270	0.00	29.623 
05:00	70.8	70.8	70.8	91	68.0	2	5	248	0.00	29.627 
05:05	70.8	70.8	70.8	90	67.7	1	4	270	0.00	29.627 
05:10	70.8	70.8	70.8	90	67.7	2	4	270	0.00	29.627 
05:15	70.9	70.9	70.9	90	67.8	2	4	292	0.00	29.641 
05:20	70.9	70.9	70.9	89	67.5	2	5	270	0.00	29.641 
05:25	71.1	71.1	71.1	89	67.7	2	4	270	0.00	29.641 
05:30	71.1	71.1	71.1	88	67.4	2	5	270	0.00	29.644 
05:35	71.1	71.1	71.1	88	67.4	2	5	270	0.00	29.644 
05:40	70.9	70.9	70.9	88	67.2	2	5	270	0.00	29.644 
05:45	70.9	70.9	70.9	88	67.2	2	5	270	0.00	29.654 
05:50	71.1	71.1	71.1	88	67.4	2	4	292	0.00	29.654 
05:55	71.1	71.1	71.1	88	67.4	2	4	292	0.00	29.654 
06:00	71.1	71.1	71.1	87	67.0	2	6	292	0.00	29.666 
06:05	71.1	71.1	71.1	87	67.0	2	5	270	0.00	29.666 
06:10	71.1	71.1	71.1	86	66.7	2	4	270	0.00	29.666 
06:15	71.1	71.1	71.1	87	67.0	2	4	270	0.00	29.670 
06:20	70.9	70.9	70.9	87	66.8	1	3	292	0.00	29.670 
06:25	70.8	70.8	70.8	87	66.7	2	5	292	0.00	29.670 
06:30	70.8	70.8	70.8	87	66.7	1	3	315	0.00	29.688 
06:35	70.8	70.8	70.8	87	66.7	2	5	270	0.00	29.688 
06:40	70.6	70.6	70.6	87	66.5	2	4	270	0.00	29.688 
06:45	70.4	70.4	70.4	88	66.7	2	5	248	0.00	29.690 
06:50	70.4	70.4	70.4	88	66.7	1	3	270	0.00	29.690 
06:55	70.4	70.4	70.4	88	66.7	1	4	270	0.00	29.690 
07:00	70.4	70.4	70.4	88	66.7	1	4	270	0.00	29.703 
07:05	70.4	70.4	70.4	88	66.7	1	4	270	0.00	29.703 
07:10	70.4	70.4	70.4	88	66.7	1	4	270	0.00	29.703 
07:15	70.4	70.4	70.4	88	66.7	1	3	270	0.00	29.711 
07:20	70.4	70.4	70.4	88	66.7	1	4	270	0.00	29.711 
07:25	70.4	70.4	70.4	87	66.3	1	5	270	0.00	29.711 
07:30	70.4	70.4	70.4	87	66.3	1	3	292	0.00	29.712 
07:35	70.4	70.4	70.4	87	66.3	1	3	292	0.00	29.712 
07:40	70.4	70.4	70.4	86	66.0	2	5	315	0.00	29.712 
07:45	70.4	70.4	70.4	85	65.7	2	4	292	0.00	29.718 
07:50	70.8	70.8	70.8	84	65.7	2	3	270	0.00	29.718 
07:55	71.1	71.1	71.1	84	66.0	2	4	292	0.00	29.718 
08:00	71.3	71.3	71.3	84	66.2	2	3	292	0.00	29.722 
08:05	71.3	71.3	71.3	84	66.2	2	3	292	0.00	29.722 
08:10	71.6	71.6	71.6	84	66.5	1	3	315	0.00	29.722 
08:15	72.0	72.0	72.0	84	66.9	2	4	270	0.00	29.727 
08:20	72.1	72.1	72.1	82	66.3	3	6	270	0.00	29.727 
08:25	72.0	72.0	72.0	82	66.2	2	5	270	0.00	29.727 
08:30	72.0	72.0	72.0	82	66.2	2	6	270	0.00	29.728 
08:35	72.1	72.1	72.1	81	65.9	3	6	292	0.00	29.728 
08:40	72.5	72.5	72.5	81	66.3	2	5	292	0.00	29.728 
08:45	72.7	72.7	72.7	81	66.5	3	5	270	0.00	29.734 
08:50	73.0	73.0	73.0	81	66.8	2	5	270	0.00	29.734 
08:55	73.3	73.3	73.3	79	66.4	2	6	292	0.00	29.734 
09:00	73.5	73.5	73.5	78	66.2	2	5	270	0.00	29.741 
09:05	73.5	73.5	73.5	77	65.8	3	5	270	0.00	29.741 
09:10	73.5	73.5	73.5	77	65.8	2	5	270	0.00	29.741 
09:15	73.7	73.7	73.7	78	66.4	2	6	270	0.00	29.741 
09:20	73.9	73.9	73.9	78	66.6	2	5	292	0.00	29.741 
09:25	74.0	74.0	74.0	77	66.3	3	6	270	0.00	29.741 
09:30	74.4	74.4	74.4	76	66.3	2	5	270	0.00	29.740 
09:35	74.7	74.7	74.7	75	66.2	2	6	292	0.00	29.740 
09:40	74.7	74.7	74.7	74	65.8	2	7	270	0.00	29.740 
09:45	74.7	74.7	74.7	74	65.8	3	5	270	0.00	29.741 
09:50	75.3	75.3	76.5	75	66.8	2	5	292	0.00	29.741 
09:55	75.1	75.1	76.5	73	65.8	2	5	270	0.00	29.741 
10:00	75.3	75.3	76.6	74	66.4	2	4	270	0.00	29.744 
10:05	75.6	75.6	77.0	74	66.7	2	4	292	0.00	29.744 
10:10	76.0	76.0	77.5	73	66.7	2	5	315	0.00	29.744 
10:15	76.1	76.1	77.6	73	66.8	2	3	292	0.00	29.749 
10:20	76.0	76.0	77.5	72	66.3	3	9	315	0.00	29.749 
10:25	76.3	76.3	77.8	73	67.0	2	5	292	0.00	29.749 
10:30	76.3	76.3	77.8	73	67.0	2	6	315	0.00	29.752 
10:35	76.3	76.3	77.9	72	66.6	3	6	270	0.00	29.752 
10:40	76.3	76.3	77.9	72	66.6	3	7	292	0.00	29.752 
10:45	76.5	76.5	78.1	72	66.8	3	5	315	0.00	29.753 
10:50	76.5	76.5	78.1	72	66.8	3	7	270	0.00	29.753 
10:55	76.1	76.1	77.7	72	66.4	3	5	270	0.00	29.753 
11:00	76.1	76.1	77.6	73	66.8	2	5	270	0.00	29.756 
11:05	76.3	76.3	77.8	73	67.0	2	4	270	0.00	29.756 
11:10	76.1	76.1	77.5	74	67.2	2	4	292	0.00	29.756 
11:15	76.0	76.0	77.5	73	66.7	3	5	292	0.00	29.758 
11:20	76.0	76.0	77.4	74	67.1	3	4	270	0.00	29.758 
11:25	76.1	76.1	77.6	73	66.8	1	3	315	0.00	29.758 
11:30	76.3	76.3	77.8	74	67.4	2	5	292	0.00	29.761 
11:35	76.5	76.5	78.1	73	67.2	3	5	315	0.00	29.761 
11:40	77.0	77.0	78.7	73	67.7	3	5	270	0.00	29.761 
11:45	77.2	77.2	79.0	71	67.0	3	5	292	0.00	29.761 
11:50	77.2	77.2	79.0	72	67.5	2	5	315	0.00	29.761 
11:55	77.2	77.2	79.0	71	67.0	3	6	292	0.00	29.761 
12:00	77.6	77.6	79.5	71	67.4	2	4	270	0.00	29.766 
12:05	77.9	77.9	79.9	71	67.7	3	4	270	0.00	29.766 
12:10	78.1	78.1	80.1	69	67.1	3	6	315	0.00	29.766 
12:15	78.1	78.1	80.1	69	67.1	2	5	315	0.00	29.768 
12:20	78.3	78.3	80.4	69	67.3	3	6	270	0.00	29.768 
12:25	78.6	78.6	80.8	69	67.6	2	5	292	0.00	29.768 
12:30	78.5	78.5	80.7	69	67.5	2	6	315	0.00	29.760 
12:35	78.6	78.6	80.7	68	67.1	2	5	315	0.00	29.760 
12:40	79.0	79.0	81.3	69	67.9	2	4	292	0.00	29.760 
12:45	79.4	79.4	81.6	66	67.0	2	4	315	0.00	29.761 
12:50	79.2	79.2	81.3	65	66.4	3	6	270	0.00	29.761 
12:55	79.6	79.6	81.9	66	67.2	2	5	270	0.00	29.761 
13:00	79.9	79.9	82.1	64	66.6	2	5	315	0.00	29.761 
13:05	80.1	80.1	82.5	65	67.2	3	5	315	0.00	29.761 
13:10	80.3	80.3	82.7	64	67.0	3	5	292	0.00	29.761 
13:15	80.3	80.3	82.8	65	67.4	2	5	315	0.00	29.763 
13:20	80.7	80.7	83.2	64	67.4	2	4	270	0.00	29.763 
13:25	81.1	81.1	83.8	64	67.7	3	5	270	0.00	29.763 
13:30	81.1	81.1	83.5	62	66.8	3	7	292	0.00	29.762 
13:35	80.9	80.9	83.1	61	66.2	3	6	270	0.00	29.762 
13:40	80.7	80.7	83.1	63	66.9	2	5	292	0.00	29.762 
13:45	81.2	81.2	84.1	65	68.3	2	5	270	0.00	29.766 
13:50	81.2	81.2	83.6	62	66.9	3	5	270	0.00	29.766 
13:55	81.2	81.2	83.6	62	66.9	2	5	270	0.00	29.766 
14:00	81.6	81.6	84.2	62	67.3	3	6	270	0.00	29.759 
14:05	82.2	82.2	84.9	61	67.4	2	8	292	0.00	29.759 
14:10	82.4	82.4	84.8	59	66.6	2	4	292	0.00	29.759 
14:15	82.4	82.4	84.8	59	66.6	2	5	315	0.00	29.755 
14:20	82.6	82.6	84.9	58	66.3	2	6	292	0.00	29.755 
14:25	82.8	82.8	84.8	56	65.5	4	6	292	0.00	29.755 
14:30	83.0	83.0	85.1	56	65.7	3	6	270	0.00	29.756 
14:35	82.8	82.8	85.0	57	66.0	3	5	270	0.00	29.756 
14:40	83.4	83.4	85.8	57	66.5	2	4	315	0.00	29.756 
14:45	83.6	83.6	86.4	58	67.2	2	7	270	0.00	29.758 
14:50	83.2	83.2	84.9	54	64.8	3	7	315	0.00	29.758 
14:55	82.6	82.6	84.5	56	65.3	2	6	315	0.00	29.758 
15:00	83.0	83.0	84.9	55	65.1	2	5	315	0.00	29.757 
15:05	83.6	83.6	85.7	55	65.7	2	5	315	0.00	29.757 
15:10	84.0	84.0	85.8	53	65.0	3	8	270	0.00	29.757 
15:15	83.8	83.8	85.3	52	64.3	2	5	292	0.00	29.757 
15:20	84.0	84.0	85.8	53	65.0	2	4	270	0.00	29.757 
15:25	84.3	84.3	85.5	50	63.6	3	5	270	0.00	29.757 
15:30	84.5	84.5	85.6	49	63.2	2	5	315	0.00	29.755 
15:35	84.5	84.5	85.6	49	63.2	2	6	315	0.00	29.755 
15:40	84.7	84.7	85.8	49	63.4	3	5	270	0.00	29.755 
15:45	84.9	84.9	85.8	48	63.0	2	6	315	0.00	29.756 
15:50	84.9	84.9	85.6	47	62.4	2	5	292	0.00	29.756 
15:55	85.1	85.1	85.9	47	62.6	2	5	292	0.00	29.756 
16:00	85.3	85.3	86.9	50	64.5	2	5	292	0.00	29.755 
16:05	85.3	85.3	86.1	47	62.8	3	6	315	0.00	29.755 
16:10	85.1	85.1	86.1	48	63.2	3	6	315	0.00	29.755 
16:15	85.1	85.1	86.4	49	63.8	3	5	270	0.00	29.754 
16:20	84.9	84.9	85.6	47	62.4	3	7	315	0.00	29.754 
16:25	84.7	84.7	85.6	48	62.8	3	5	315	0.00	29.754 
16:30	84.9	84.9	85.4	46	61.8	2	5	315	0.00	29.753 
16:35	84.9	84.9	85.4	46	61.8	3	7	292	0.00	29.753 
16:40	85.3	85.3	86.4	48	63.4	2	6	292	0.00	29.753 
16:45	85.5	85.5	86.2	46	62.3	2	5	292	0.00	29.753 
16:50	85.3	85.3	85.9	46	62.1	2	6	270	0.00	29.753 
16:55	85.3	85.3	85.9	46	62.1	2	5	315	0.00	29.753 
17:00	85.1	85.1	85.7	46	62.0	3	6	292	0.00	29.752 
17:05	85.3	85.3	85.9	46	62.1	3	7	315	0.00	29.752 
17:10	85.5	85.5	85.7	44	61.1	2	5	315	0.00	29.752 
17:15	85.3	85.3	85.5	44	60.9	2	5	315	0.00	29.753 
17:20	85.1	85.1	85.2	44	60.7	3	9	315	0.00	29.753 
17:25	85.1	85.1	85.7	46	62.0	3	9	292	0.00	29.753 
17:30	85.1	85.1	85.7	46	62.0	2	4	315	0.00	29.752 
17:35	85.3	85.3	85.7	45	61.5	2	4	315	0.00	29.752 
17:40	85.5	85.5	85.7	44	61.1	2	6	315	0.00	29.752 
17:45	85.1	85.1	85.2	44	60.7	3	6	315	0.00	29.753 
17:50	85.1	85.1	85.4	45	61.3	3	6	315	0.00	29.753 
17:55	85.1	85.1	85.4	45	61.3	2	4	292	0.00	29.753 
18:00	85.1	85.1	85.7	46	62.0	2	5	270	0.00	29.755 
18:05	85.1	85.1	85.4	45	61.3	2	5	270	0.00	29.755 
18:10	85.3	85.3	85.5	44	60.9	2	5	248	0.00	29.755 
18:15	85.1	85.1	85.2	44	60.7	2	5	270	0.00	29.758 
18:20	84.7	84.7	84.6	43	59.7	2	6	338	0.00	29.758 
18:25	84.7	84.7	84.6	43	59.7	2	5	315	0.00	29.758 
18:30	84.7	84.7	84.7	44	60.3	2	6	315	0.00	29.759 
18:35	84.5	84.5	84.3	43	59.5	2	4	292	0.00	29.759 
18:40	84.3	84.3	84.3	44	60.0	2	6	270	0.00	29.759 
18:45	84.1	84.1	83.9	43	59.2	2	6	315	0.00	29.761 
18:50	84.1	84.1	84.1	44	59.8	2	5	270	0.00	29.761 
18:55	84.1	84.1	83.9	43	59.2	1	4	315	0.00	29.761 
19:00	84.1	84.1	83.7	42	58.5	2	5	315	0.00	29.766 
19:05	84.0	84.0	83.6	42	58.4	2	5	315	0.00	29.766 
19:10	84.0	84.0	84.0	44	59.7	1	4	292	0.00	29.766 
19:15	84.0	84.0	84.0	44	59.7	1	2	292	0.00	29.764 
19:20	83.8	83.8	83.7	44	59.5	1	5	315	0.00	29.764 
19:25	83.8	83.8	83.9	45	60.2	1	4	292	0.00	29.764 
19:30	83.6	83.6	83.7	45	60.0	2	4	315	0.00	29.766 
19:35	83.6	83.6	83.7	45	60.0	1	3	315	0.00	29.766 
19:40	83.4	83.4	83.7	46	60.4	0	1	315	0.00	29.766 
19:45	83.2	83.2	83.4	46	60.2	1	3	270	0.00	29.770 
19:50	83.0	83.0	83.4	47	60.7	1	3	270	0.00	29.770 
19:55	82.8	82.8	83.2	47	60.5	1	3	270	0.00	29.770 
20:00	82.8	82.8	83.2	47	60.5	1	2	315	0.00	29.771 
20:05	82.6	82.6	83.0	47	60.3	0	2	315	0.00	29.771 
20:10	82.4	82.4	82.9	48	60.7	1	2	315	0.00	29.771 
20:15	82.2	82.2	82.7	48	60.5	1	3	315	0.00	29.780 
20:20	82.0	82.0	82.6	49	60.9	0	1	292	0.00	29.780 
20:25	81.8	81.8	82.6	50	61.3	0	2	292	0.00	29.780 
20:30	81.6	81.6	82.3	50	61.1	0	2	292	0.00	29.784 
20:35	81.2	81.2	81.9	50	60.8	0	2	292	0.00	29.784 
20:40	81.1	81.1	82.0	51	61.2	0	2	292	0.00	29.784 
20:45	80.7	80.7	81.8	53	62.0	0	0	---	0.00	29.788 
20:50	80.3	80.3	81.5	54	62.1	0	0	---	0.00	29.788 
20:55	79.8	79.8	81.0	54	61.7	0	0	---	0.00	29.788 
21:00	79.2	79.2	80.5	55	61.6	0	1	292	0.00	29.796 
21:05	78.8	78.8	80.2	56	61.8	0	0	---	0.00	29.796 
21:10	78.5	78.5	79.9	56	61.5	0	0	---	0.00	29.796 
21:15	78.1	78.1	79.6	57	61.6	0	0	---	0.00	29.794 
21:20	77.7	77.7	79.3	58	61.7	0	0	---	0.00	29.794 
21:25	77.2	77.2	78.9	59	61.7	0	0	---	0.00	29.794 
21:30	76.8	76.8	78.6	59	61.4	0	0	---	0.00	29.793 
21:35	76.5	76.5	78.4	60	61.6	0	0	---	0.00	29.793 
21:40	76.1	76.1	78.1	61	61.7	0	0	---	0.00	29.793 
21:45	76.0	76.0	78.0	62	62.0	0	0	---	0.00	29.802 
21:50	75.8	75.8	77.8	62	61.8	0	0	---	0.00	29.802 
21:55	75.6	75.6	77.7	62	61.6	0	0	---	0.00	29.802 
22:00	75.4	75.4	77.5	63	61.9	0	0	---	0.00	29.803 
22:05	75.1	75.1	77.3	63	61.6	0	0	---	0.00	29.803 
22:10	74.7	74.7	74.7	64	61.7	0	0	---	0.00	29.803 
22:15	74.4	74.4	74.4	64	61.4	0	0	---	0.00	29.805 
22:20	74.2	74.2	74.2	64	61.2	0	0	---	0.00	29.805 
22:25	74.0	74.0	74.0	64	61.0	0	0	---	0.00	29.805 
22:30	73.9	73.9	73.9	64	60.9	0	0	---	0.00	29.807 
22:35	73.9	73.9	73.9	64	60.9	0	0	---	0.00	29.807 
22:40	73.7	73.7	73.7	65	61.2	0	0	---	0.00	29.807 
22:45	73.5	73.5	73.5	65	61.0	0	0	---	0.00	29.810 
22:50	73.2	73.2	73.2	66	61.1	0	0	---	0.00	29.810 
22:55	72.8	72.8	72.8	66	60.8	0	0	---	0.00	29.810 
23:00	72.5	72.5	72.5	67	60.9	0	0	---	0.00	29.810 
23:05	72.3	72.3	72.3	68	61.1	0	0	---	0.00	29.810 
23:10	71.8	71.8	71.8	69	61.1	0	0	---	0.00	29.810 
23:15	71.5	71.5	71.5	70	61.2	0	0	---	0.00	29.806 
23:20	70.9	70.9	70.9	71	61.0	0	0	---	0.00	29.806 
23:25	70.8	70.8	70.8	72	61.3	0	0	---	0.00	29.806 
23:30	70.4	70.4	70.4	73	61.3	0	0	---	0.00	29.806 
23:35	70.1	70.1	70.1	73	61.0	0	0	---	0.00	29.806 
23:40	69.8	69.8	69.8	74	61.1	0	0	---	0.00	29.806 
23:45	69.4	69.4	69.4	75	61.1	0	0	---	0.00	29.807 
23:50	69.1	69.1	69.1	76	61.2	0	0	---	0.00	29.807 
23:55	68.9	68.9	68.9	77	61.4	0	0	---	0.00	29.807 

CoCoRaHS
IN-AL-39
A2 Web Hosting
Creative Commons License
GoDaddy
search engine by freefind advanced

loaded 2018-11-20 08:22:33 • last modified 2010-11-18 10:43:29
Privacy PolicyDisclaimer
• wx.awcolley.com is powered by PmWiki v.2002016 •
• all content (unless otherwise noted) © 2018 A W Colley